sensor_id;sensor_type;location;lat;lon;timestamp;temperature;humidity
19734;DHT22;10018;51.230;7.860;2023-05-15T08:29:40;15.60;99.90
19734;DHT22;10018;51.230;7.860;2023-05-15T08:32:07;15.80;99.90
19734;DHT22;10018;51.230;7.860;2023-05-15T08:34:33;16.00;99.90
19734;DHT22;10018;51.230;7.860;2023-05-15T08:37:01;16.20;99.90
19734;DHT22;10018;51.230;7.860;2023-05-15T08:39:26;16.40;99.90
19734;DHT22;10018;51.230;7.860;2023-05-15T08:44:27;16.50;99.90
19734;DHT22;10018;51.230;7.860;2023-05-15T08:46:53;16.70;99.90
19734;DHT22;10018;51.230;7.860;2023-05-15T08:52:15;16.70;99.90
19734;DHT22;10018;51.230;7.860;2023-05-15T08:54:41;16.60;99.90
19734;DHT22;10018;51.230;7.860;2023-05-15T08:57:08;16.60;99.90
19734;DHT22;10018;51.230;7.860;2023-05-15T08:59:34;16.80;99.90
19734;DHT22;10018;51.230;7.860;2023-05-15T09:02:03;16.80;99.90
19734;DHT22;10018;51.230;7.860;2023-05-15T09:04:29;16.80;99.90
19734;DHT22;10018;51.230;7.860;2023-05-15T09:06:56;16.90;99.90
19734;DHT22;10018;51.230;7.860;2023-05-15T09:09:23;17.00;99.90
19734;DHT22;10018;51.230;7.860;2023-05-15T09:11:49;17.20;99.90
19734;DHT22;10018;51.230;7.860;2023-05-15T09:14:15;17.50;99.90
19734;DHT22;10018;51.230;7.860;2023-05-15T09:16:41;17.60;99.90
19734;DHT22;10018;51.230;7.860;2023-05-15T09:19:08;17.70;99.90
19734;DHT22;10018;51.230;7.860;2023-05-15T09:21:34;17.90;99.90
19734;DHT22;10018;51.230;7.860;2023-05-15T09:26:46;17.60;99.90
19734;DHT22;10018;51.230;7.860;2023-05-15T09:29:16;17.60;99.90
19734;DHT22;10018;51.230;7.860;2023-05-15T09:31:42;17.80;99.90
19734;DHT22;10018;51.230;7.860;2023-05-15T09:34:08;18.00;99.90
19734;DHT22;10018;51.230;7.860;2023-05-15T09:36:34;18.30;99.90
19734;DHT22;10018;51.230;7.860;2023-05-15T09:39:01;18.40;99.90
19734;DHT22;10018;51.230;7.860;2023-05-15T09:41:27;18.50;99.90
19734;DHT22;10018;51.230;7.860;2023-05-15T09:43:54;18.60;99.90
19734;DHT22;10018;51.230;7.860;2023-05-15T09:46:23;18.40;99.90
19734;DHT22;10018;51.230;7.860;2023-05-15T09:48:53;18.40;99.90
19734;DHT22;10018;51.230;7.860;2023-05-15T09:51:19;18.50;99.90
19734;DHT22;10018;51.230;7.860;2023-05-15T09:53:50;18.40;99.90
19734;DHT22;10018;51.230;7.860;2023-05-15T09:56:17;18.30;99.90
19734;DHT22;10018;51.230;7.860;2023-05-15T09:58:53;18.20;99.90
19734;DHT22;10018;51.230;7.860;2023-05-15T10:01:20;18.20;99.90
19734;DHT22;10018;51.230;7.860;2023-05-15T10:03:59;18.40;99.90
19734;DHT22;10018;51.230;7.860;2023-05-15T10:06:25;18.60;99.90
19734;DHT22;10018;51.230;7.860;2023-05-15T10:08:52;19.00;99.90
19734;DHT22;10018;51.230;7.860;2023-05-15T10:11:19;19.10;99.90
19734;DHT22;10018;51.230;7.860;2023-05-15T10:13:46;19.30;99.90
19734;DHT22;10018;51.230;7.860;2023-05-15T10:16:13;19.10;99.90
19734;DHT22;10018;51.230;7.860;2023-05-15T10:18:40;19.10;99.90
19734;DHT22;10018;51.230;7.860;2023-05-15T10:21:07;19.00;99.90
19734;DHT22;10018;51.230;7.860;2023-05-15T10:23:35;18.90;99.90
19734;DHT22;10018;51.230;7.860;2023-05-15T10:29:05;18.90;99.90
19734;DHT22;10018;51.230;7.860;2023-05-15T10:31:32;19.10;99.90
19734;DHT22;10018;51.230;7.860;2023-05-15T10:33:59;19.40;99.90
19734;DHT22;10018;51.230;7.860;2023-05-15T10:36:25;19.70;99.90
19734;DHT22;10018;51.230;7.860;2023-05-15T10:38:51;19.80;99.90
19734;DHT22;10018;51.230;7.860;2023-05-15T10:41:19;19.60;99.90
19734;DHT22;10018;51.230;7.860;2023-05-15T10:43:46;19.30;99.90
19734;DHT22;10018;51.230;7.860;2023-05-15T10:46:13;19.00;99.90
19734;DHT22;10018;51.230;7.860;2023-05-15T10:48:40;18.80;99.90
19734;DHT22;10018;51.230;7.860;2023-05-15T10:51:16;18.70;99.90
19734;DHT22;10018;51.230;7.860;2023-05-15T10:53:45;18.50;99.90
19734;DHT22;10018;51.230;7.860;2023-05-15T10:56:12;18.50;99.90
19734;DHT22;10018;51.230;7.860;2023-05-15T10:58:42;18.30;99.90
19734;DHT22;10018;51.230;7.860;2023-05-15T11:01:26;18.30;99.90
19734;DHT22;10018;51.230;7.860;2023-05-15T11:04:11;18.20;99.90
19734;DHT22;10018;51.230;7.860;2023-05-15T11:06:42;18.40;99.90
19734;DHT22;10018;51.230;7.860;2023-05-15T11:11:58;18.90;99.90
19734;DHT22;10018;51.230;7.860;2023-05-15T11:14:25;19.00;99.90
19734;DHT22;10018;51.230;7.860;2023-05-15T11:21:59;18.50;99.90
19734;DHT22;10018;51.230;7.860;2023-05-15T11:24:28;18.50;99.90
19734;DHT22;10018;51.230;7.860;2023-05-15T11:27:01;18.50;99.90
19734;DHT22;10018;51.230;7.860;2023-05-15T11:29:27;18.60;99.90
19734;DHT22;10018;51.230;7.860;2023-05-15T11:31:53;18.70;99.90
19734;DHT22;10018;51.230;7.860;2023-05-15T11:34:31;18.80;99.90
19734;DHT22;10018;51.230;7.860;2023-05-15T11:36:57;18.70;99.90
19734;DHT22;10018;51.230;7.860;2023-05-15T11:39:24;18.70;99.90
19734;DHT22;10018;51.230;7.860;2023-05-15T11:41:50;18.50;99.90
19734;DHT22;10018;51.230;7.860;2023-05-15T11:44:22;18.60;99.90
19734;DHT22;10018;51.230;7.860;2023-05-15T11:46:49;18.90;99.90
19734;DHT22;10018;51.230;7.860;2023-05-15T11:49:20;19.20;99.90
19734;DHT22;10018;51.230;7.860;2023-05-15T11:51:47;19.30;99.90
19734;DHT22;10018;51.230;7.860;2023-05-15T11:54:13;19.40;99.90
19734;DHT22;10018;51.230;7.860;2023-05-15T11:56:43;19.60;99.90
19734;DHT22;10018;51.230;7.860;2023-05-15T11:59:11;19.80;99.90
19734;DHT22;10018;51.230;7.860;2023-05-15T12:01:44;19.90;99.90
19734;DHT22;10018;51.230;7.860;2023-05-15T12:04:13;19.90;99.90
19734;DHT22;10018;51.230;7.860;2023-05-15T12:06:39;19.80;99.90
19734;DHT22;10018;51.230;7.860;2023-05-15T12:09:05;20.00;99.90
19734;DHT22;10018;51.230;7.860;2023-05-15T12:11:32;20.20;99.90
19734;DHT22;10018;51.230;7.860;2023-05-15T12:13:57;20.50;99.90
19734;DHT22;10018;51.230;7.860;2023-05-15T12:16:27;20.30;99.90
19734;DHT22;10018;51.230;7.860;2023-05-15T12:18:53;19.90;99.90
19734;DHT22;10018;51.230;7.860;2023-05-15T12:21:20;19.60;99.90
19734;DHT22;10018;51.230;7.860;2023-05-15T12:23:52;19.40;99.90
19734;DHT22;10018;51.230;7.860;2023-05-15T12:26:20;19.30;99.90
19734;DHT22;10018;51.230;7.860;2023-05-15T12:28:47;19.30;99.90
19734;DHT22;10018;51.230;7.860;2023-05-15T12:31:14;19.50;99.90
19734;DHT22;10018;51.230;7.860;2023-05-15T12:33:42;19.60;99.90
19734;DHT22;10018;51.230;7.860;2023-05-15T12:36:08;20.00;99.90
19734;DHT22;10018;51.230;7.860;2023-05-15T12:38:35;20.20;99.90
19734;DHT22;10018;51.230;7.860;2023-05-15T12:41:01;20.00;99.90
19734;DHT22;10018;51.230;7.860;2023-05-15T12:43:26;19.70;99.90
19734;DHT22;10018;51.230;7.860;2023-05-15T12:45:54;19.40;99.90
19734;DHT22;10018;51.230;7.860;2023-05-15T12:48:20;19.10;99.90
19734;DHT22;10018;51.230;7.860;2023-05-15T12:50:46;19.40;99.90
19734;DHT22;10018;51.230;7.860;2023-05-15T12:53:13;19.50;99.90
19734;DHT22;10018;51.230;7.860;2023-05-15T12:55:44;19.40;99.90
19734;DHT22;10018;51.230;7.860;2023-05-15T12:58:11;19.10;99.90
19734;DHT22;10018;51.230;7.860;2023-05-15T13:00:41;18.80;99.90
19734;DHT22;10018;51.230;7.860;2023-05-15T13:03:10;18.70;99.90
19734;DHT22;10018;51.230;7.860;2023-05-15T13:05:42;18.50;99.90
19734;DHT22;10018;51.230;7.860;2023-05-15T13:08:09;18.40;99.90
19734;DHT22;10018;51.230;7.860;2023-05-15T13:10:38;18.30;99.90
19734;DHT22;10018;51.230;7.860;2023-05-15T13:13:04;18.20;99.90
19734;DHT22;10018;51.230;7.860;2023-05-15T13:15:38;18.10;99.90
19734;DHT22;10018;51.230;7.860;2023-05-15T13:20:43;18.00;99.90
19734;DHT22;10018;51.230;7.860;2023-05-15T13:23:10;18.10;99.90
19734;DHT22;10018;51.230;7.860;2023-05-15T13:25:36;18.10;99.90
19734;DHT22;10018;51.230;7.860;2023-05-15T13:28:04;18.10;99.90
19734;DHT22;10018;51.230;7.860;2023-05-15T13:30:31;18.20;99.90
19734;DHT22;10018;51.230;7.860;2023-05-15T13:32:57;18.20;99.90
19734;DHT22;10018;51.230;7.860;2023-05-15T13:35:23;18.10;99.90
19734;DHT22;10018;51.230;7.860;2023-05-15T13:37:48;18.20;99.90
19734;DHT22;10018;51.230;7.860;2023-05-15T13:40:14;18.30;99.90
19734;DHT22;10018;51.230;7.860;2023-05-15T13:42:41;18.30;99.90
19734;DHT22;10018;51.230;7.860;2023-05-15T13:45:09;18.20;99.90
19734;DHT22;10018;51.230;7.860;2023-05-15T13:47:37;18.20;99.90
19734;DHT22;10018;51.230;7.860;2023-05-15T13:50:07;18.30;99.90
19734;DHT22;10018;51.230;7.860;2023-05-15T13:52:32;18.30;99.90
19734;DHT22;10018;51.230;7.860;2023-05-15T13:55:00;18.00;99.90
19734;DHT22;10018;51.230;7.860;2023-05-15T13:57:27;17.90;99.90
19734;DHT22;10018;51.230;7.860;2023-05-15T13:59:53;18.00;99.90
19734;DHT22;10018;51.230;7.860;2023-05-15T14:02:18;18.10;99.90
19734;DHT22;10018;51.230;7.860;2023-05-15T14:04:45;18.20;99.90
19734;DHT22;10018;51.230;7.860;2023-05-15T14:07:13;18.20;99.90
19734;DHT22;10018;51.230;7.860;2023-05-15T14:09:39;18.20;99.90
19734;DHT22;10018;51.230;7.860;2023-05-15T14:12:07;18.00;99.90
19734;DHT22;10018;51.230;7.860;2023-05-15T14:14:34;18.10;99.90
19734;DHT22;10018;51.230;7.860;2023-05-15T14:16:59;18.20;99.90
19734;DHT22;10018;51.230;7.860;2023-05-15T14:19:25;18.30;99.90
19734;DHT22;10018;51.230;7.860;2023-05-15T14:21:51;18.40;99.90
19734;DHT22;10018;51.230;7.860;2023-05-15T14:24:16;18.70;99.90
19734;DHT22;10018;51.230;7.860;2023-05-15T14:26:42;18.70;99.90
19734;DHT22;10018;51.230;7.860;2023-05-15T14:29:10;18.80;99.90
19734;DHT22;10018;51.230;7.860;2023-05-15T14:31:36;18.70;99.90
19734;DHT22;10018;51.230;7.860;2023-05-15T14:34:02;18.60;99.90
19734;DHT22;10018;51.230;7.860;2023-05-15T14:36:29;18.50;99.90
19734;DHT22;10018;51.230;7.860;2023-05-15T14:38:55;18.50;99.90
19734;DHT22;10018;51.230;7.860;2023-05-15T14:41:23;18.50;99.90
19734;DHT22;10018;51.230;7.860;2023-05-15T14:43:48;18.50;99.90
19734;DHT22;10018;51.230;7.860;2023-05-15T14:46:14;18.70;99.90
19734;DHT22;10018;51.230;7.860;2023-05-15T14:48:39;18.70;99.90
19734;DHT22;10018;51.230;7.860;2023-05-15T14:51:05;19.00;99.90
19734;DHT22;10018;51.230;7.860;2023-05-15T14:53:31;19.20;99.90
19734;DHT22;10018;51.230;7.860;2023-05-15T14:55:58;19.50;99.90
19734;DHT22;10018;51.230;7.860;2023-05-15T14:58:24;19.90;99.90
19734;DHT22;10018;51.230;7.860;2023-05-15T15:00:49;20.00;99.90
19734;DHT22;10018;51.230;7.860;2023-05-15T15:03:16;19.60;99.90
19734;DHT22;10018;51.230;7.860;2023-05-15T15:05:43;19.60;99.90
19734;DHT22;10018;51.230;7.860;2023-05-15T15:08:09;19.80;99.90
19734;DHT22;10018;51.230;7.860;2023-05-15T15:10:37;20.00;99.90
19734;DHT22;10018;51.230;7.860;2023-05-15T15:13:04;20.30;99.90
19734;DHT22;10018;51.230;7.860;2023-05-15T15:15:31;20.60;99.90
19734;DHT22;10018;51.230;7.860;2023-05-15T15:17:57;20.90;99.90
19734;DHT22;10018;51.230;7.860;2023-05-15T15:20:24;21.00;99.90
19734;DHT22;10018;51.230;7.860;2023-05-15T15:22:51;21.00;99.90
19734;DHT22;10018;51.230;7.860;2023-05-15T15:25:17;21.00;99.90
19734;DHT22;10018;51.230;7.860;2023-05-15T15:27:43;21.00;99.90
19734;DHT22;10018;51.230;7.860;2023-05-15T15:30:09;20.80;99.90
19734;DHT22;10018;51.230;7.860;2023-05-15T15:32:35;20.50;99.90
19734;DHT22;10018;51.230;7.860;2023-05-15T15:35:01;20.50;99.90
19734;DHT22;10018;51.230;7.860;2023-05-15T15:37:32;20.60;99.90
19734;DHT22;10018;51.230;7.860;2023-05-15T15:39:59;20.80;99.90
19734;DHT22;10018;51.230;7.860;2023-05-15T15:42:24;20.50;99.90
19734;DHT22;10018;51.230;7.860;2023-05-15T15:44:52;20.50;99.90
19734;DHT22;10018;51.230;7.860;2023-05-15T15:47:17;20.30;99.90
19734;DHT22;10018;51.230;7.860;2023-05-15T15:49:45;20.30;99.90
19734;DHT22;10018;51.230;7.860;2023-05-15T15:52:11;20.30;99.90
19734;DHT22;10018;51.230;7.860;2023-05-15T15:54:37;20.20;99.90
19734;DHT22;10018;51.230;7.860;2023-05-15T15:57:03;20.10;99.90
19734;DHT22;10018;51.230;7.860;2023-05-15T15:59:29;19.90;99.90
19734;DHT22;10018;51.230;7.860;2023-05-15T16:01:54;19.80;99.90
19734;DHT22;10018;51.230;7.860;2023-05-15T16:04:20;19.70;99.90
19734;DHT22;10018;51.230;7.860;2023-05-15T16:06:47;19.50;99.90
19734;DHT22;10018;51.230;7.860;2023-05-15T16:09:13;19.50;99.90
19734;DHT22;10018;51.230;7.860;2023-05-15T16:11:38;19.60;99.90
19734;DHT22;10018;51.230;7.860;2023-05-15T16:14:04;19.70;99.90
19734;DHT22;10018;51.230;7.860;2023-05-15T16:16:29;19.70;99.90
19734;DHT22;10018;51.230;7.860;2023-05-15T16:18:58;19.60;99.90
19734;DHT22;10018;51.230;7.860;2023-05-15T16:21:24;19.40;99.90
19734;DHT22;10018;51.230;7.860;2023-05-15T16:23:50;19.10;99.90
19734;DHT22;10018;51.230;7.860;2023-05-15T16:26:15;18.70;99.90
19734;DHT22;10018;51.230;7.860;2023-05-15T16:28:41;18.40;99.90
19734;DHT22;10018;51.230;7.860;2023-05-15T16:31:07;18.30;99.90
19734;DHT22;10018;51.230;7.860;2023-05-15T16:33:33;18.10;99.90
19734;DHT22;10018;51.230;7.860;2023-05-15T16:36:01;18.00;99.90
19734;DHT22;10018;51.230;7.860;2023-05-15T16:38:29;18.00;99.90
19734;DHT22;10018;51.230;7.860;2023-05-15T16:40:55;18.10;99.90
19734;DHT22;10018;51.230;7.860;2023-05-15T16:43:20;18.20;99.90
19734;DHT22;10018;51.230;7.860;2023-05-15T16:45:46;18.40;99.90
19734;DHT22;10018;51.230;7.860;2023-05-15T16:48:12;18.40;99.90
19734;DHT22;10018;51.230;7.860;2023-05-15T16:50:37;18.50;99.90
19734;DHT22;10018;51.230;7.860;2023-05-15T16:53:03;18.50;99.90
19734;DHT22;10018;51.230;7.860;2023-05-15T16:55:29;18.60;99.90
19734;DHT22;10018;51.230;7.860;2023-05-15T16:57:55;18.60;99.90
19734;DHT22;10018;51.230;7.860;2023-05-15T17:00:21;18.50;99.90
19734;DHT22;10018;51.230;7.860;2023-05-15T17:02:47;18.40;99.90
19734;DHT22;10018;51.230;7.860;2023-05-15T17:05:13;18.30;99.90
19734;DHT22;10018;51.230;7.860;2023-05-15T17:07:40;18.20;99.90
19734;DHT22;10018;51.230;7.860;2023-05-15T17:10:07;18.00;99.90
19734;DHT22;10018;51.230;7.860;2023-05-15T17:12:33;17.80;99.90
19734;DHT22;10018;51.230;7.860;2023-05-15T17:14:59;17.60;99.90
19734;DHT22;10018;51.230;7.860;2023-05-15T17:17:24;17.60;99.90
19734;DHT22;10018;51.230;7.860;2023-05-15T17:19:51;17.50;99.90
19734;DHT22;10018;51.230;7.860;2023-05-15T17:22:17;17.40;99.90
19734;DHT22;10018;51.230;7.860;2023-05-15T17:24:43;17.30;99.90
19734;DHT22;10018;51.230;7.860;2023-05-15T17:27:09;17.30;99.90
19734;DHT22;10018;51.230;7.860;2023-05-15T17:29:35;17.10;99.90
19734;DHT22;10018;51.230;7.860;2023-05-15T17:32:01;17.10;99.90
19734;DHT22;10018;51.230;7.860;2023-05-15T17:34:26;17.00;99.90
19734;DHT22;10018;51.230;7.860;2023-05-15T17:36:52;16.90;99.90
19734;DHT22;10018;51.230;7.860;2023-05-15T17:39:17;16.80;99.90
19734;DHT22;10018;51.230;7.860;2023-05-15T17:41:43;16.80;99.90
19734;DHT22;10018;51.230;7.860;2023-05-15T17:44:09;16.80;99.90
19734;DHT22;10018;51.230;7.860;2023-05-15T17:46:34;16.80;99.90
19734;DHT22;10018;51.230;7.860;2023-05-15T17:49:00;16.80;99.90
19734;DHT22;10018;51.230;7.860;2023-05-15T17:51:26;16.80;99.90
19734;DHT22;10018;51.230;7.860;2023-05-15T17:53:54;16.90;99.90
19734;DHT22;10018;51.230;7.860;2023-05-15T17:56:20;16.90;99.90
19734;DHT22;10018;51.230;7.860;2023-05-15T17:58:46;16.90;99.90
19734;DHT22;10018;51.230;7.860;2023-05-15T18:01:11;16.90;99.90
19734;DHT22;10018;51.230;7.860;2023-05-15T18:03:37;16.80;99.90
19734;DHT22;10018;51.230;7.860;2023-05-15T18:06:02;16.80;99.90
19734;DHT22;10018;51.230;7.860;2023-05-15T18:08:28;16.80;99.90
19734;DHT22;10018;51.230;7.860;2023-05-15T18:10:54;16.70;99.90
19734;DHT22;10018;51.230;7.860;2023-05-15T18:13:20;16.60;99.90
19734;DHT22;10018;51.230;7.860;2023-05-15T18:15:45;16.60;99.90
19734;DHT22;10018;51.230;7.860;2023-05-15T18:18:11;16.50;99.90
19734;DHT22;10018;51.230;7.860;2023-05-15T18:20:37;16.50;99.90
19734;DHT22;10018;51.230;7.860;2023-05-15T18:23:02;16.50;99.90
19734;DHT22;10018;51.230;7.860;2023-05-15T18:25:28;16.50;99.90
19734;DHT22;10018;51.230;7.860;2023-05-15T18:27:54;16.50;99.90
19734;DHT22;10018;51.230;7.860;2023-05-15T18:30:21;16.40;99.90
19734;DHT22;10018;51.230;7.860;2023-05-15T18:32:47;16.20;99.90
19734;DHT22;10018;51.230;7.860;2023-05-15T18:35:13;16.00;99.90
19734;DHT22;10018;51.230;7.860;2023-05-15T18:37:39;15.80;99.90
19734;DHT22;10018;51.230;7.860;2023-05-15T18:40:05;15.50;99.90
19734;DHT22;10018;51.230;7.860;2023-05-15T18:42:30;15.30;99.90
19734;DHT22;10018;51.230;7.860;2023-05-15T18:44:56;15.10;99.90
19734;DHT22;10018;51.230;7.860;2023-05-15T18:47:22;14.90;99.90
19734;DHT22;10018;51.230;7.860;2023-05-15T18:49:47;14.80;99.90
19734;DHT22;10018;51.230;7.860;2023-05-15T18:52:13;14.70;99.90
19734;DHT22;10018;51.230;7.860;2023-05-15T18:54:39;14.70;99.90
19734;DHT22;10018;51.230;7.860;2023-05-15T18:57:05;14.60;99.90
19734;DHT22;10018;51.230;7.860;2023-05-15T18:59:32;14.60;99.90
19734;DHT22;10018;51.230;7.860;2023-05-15T19:01:58;14.60;99.90
19734;DHT22;10018;51.230;7.860;2023-05-15T19:04:23;14.60;99.90
19734;DHT22;10018;51.230;7.860;2023-05-15T19:06:49;14.60;99.90
19734;DHT22;10018;51.230;7.860;2023-05-15T19:09:15;14.60;99.90
19734;DHT22;10018;51.230;7.860;2023-05-15T19:11:44;14.60;99.90
19734;DHT22;10018;51.230;7.860;2023-05-15T19:14:11;14.50;99.90
19734;DHT22;10018;51.230;7.860;2023-05-15T19:16:42;14.50;99.90
19734;DHT22;10018;51.230;7.860;2023-05-15T19:19:07;14.50;99.90
19734;DHT22;10018;51.230;7.860;2023-05-15T19:21:38;14.50;99.90
19734;DHT22;10018;51.230;7.860;2023-05-15T19:24:04;14.40;99.90
19734;DHT22;10018;51.230;7.860;2023-05-15T19:26:30;14.30;99.90
19734;DHT22;10018;51.230;7.860;2023-05-15T19:28:56;14.20;99.90
19734;DHT22;10018;51.230;7.860;2023-05-15T19:31:21;14.10;99.90
19734;DHT22;10018;51.230;7.860;2023-05-15T19:33:47;14.00;99.90
19734;DHT22;10018;51.230;7.860;2023-05-15T19:36:12;14.00;99.90
19734;DHT22;10018;51.230;7.860;2023-05-15T19:38:38;14.00;99.90
19734;DHT22;10018;51.230;7.860;2023-05-15T19:41:04;14.00;99.90
19734;DHT22;10018;51.230;7.860;2023-05-15T19:43:30;14.10;99.90
19734;DHT22;10018;51.230;7.860;2023-05-15T19:46:00;14.00;99.90
19734;DHT22;10018;51.230;7.860;2023-05-15T19:48:26;13.90;99.90
19734;DHT22;10018;51.230;7.860;2023-05-15T19:50:52;13.90;99.90
19734;DHT22;10018;51.230;7.860;2023-05-15T19:53:17;13.70;99.90
19734;DHT22;10018;51.230;7.860;2023-05-15T19:55:43;13.70;99.90
19734;DHT22;10018;51.230;7.860;2023-05-15T19:58:11;13.60;99.90
19734;DHT22;10018;51.230;7.860;2023-05-15T20:00:37;13.70;99.90
19734;DHT22;10018;51.230;7.860;2023-05-15T20:03:03;13.70;99.90
19734;DHT22;10018;51.230;7.860;2023-05-15T20:05:29;13.80;99.90
19734;DHT22;10018;51.230;7.860;2023-05-15T20:07:54;13.80;99.90
19734;DHT22;10018;51.230;7.860;2023-05-15T20:10:22;13.90;99.90
19734;DHT22;10018;51.230;7.860;2023-05-15T20:12:48;14.00;99.90
19734;DHT22;10018;51.230;7.860;2023-05-15T20:15:14;14.00;99.90
19734;DHT22;10018;51.230;7.860;2023-05-15T20:17:41;14.00;99.90
19734;DHT22;10018;51.230;7.860;2023-05-15T20:20:07;14.10;99.90
19734;DHT22;10018;51.230;7.860;2023-05-15T20:22:41;14.00;99.90
19734;DHT22;10018;51.230;7.860;2023-05-15T20:25:08;14.00;99.90
19734;DHT22;10018;51.230;7.860;2023-05-15T20:27:34;14.00;99.90
19734;DHT22;10018;51.230;7.860;2023-05-15T20:30:03;13.80;99.90
19734;DHT22;10018;51.230;7.860;2023-05-15T20:32:29;13.70;99.90
19734;DHT22;10018;51.230;7.860;2023-05-15T20:34:55;13.50;99.90
19734;DHT22;10018;51.230;7.860;2023-05-15T20:37:21;13.40;99.90
19734;DHT22;10018;51.230;7.860;2023-05-15T20:39:54;13.30;99.90
19734;DHT22;10018;51.230;7.860;2023-05-15T20:42:21;13.30;99.90
19734;DHT22;10018;51.230;7.860;2023-05-15T20:44:47;13.20;99.90
19734;DHT22;10018;51.230;7.860;2023-05-15T20:47:12;13.20;99.90
19734;DHT22;10018;51.230;7.860;2023-05-15T20:49:38;13.20;99.90
19734;DHT22;10018;51.230;7.860;2023-05-15T20:52:04;13.10;99.90
19734;DHT22;10018;51.230;7.860;2023-05-15T20:54:30;13.10;99.90
19734;DHT22;10018;51.230;7.860;2023-05-15T20:56:56;13.00;99.90
19734;DHT22;10018;51.230;7.860;2023-05-15T20:59:21;12.90;99.90
19734;DHT22;10018;51.230;7.860;2023-05-15T21:01:47;12.90;99.90
19734;DHT22;10018;51.230;7.860;2023-05-15T21:04:12;12.80;99.90
19734;DHT22;10018;51.230;7.860;2023-05-15T21:06:38;12.80;99.90
19734;DHT22;10018;51.230;7.860;2023-05-15T21:09:03;12.80;99.90
19734;DHT22;10018;51.230;7.860;2023-05-15T21:11:30;12.80;99.90
19734;DHT22;10018;51.230;7.860;2023-05-15T21:13:56;12.80;99.90
19734;DHT22;10018;51.230;7.860;2023-05-15T21:16:22;12.90;99.90
19734;DHT22;10018;51.230;7.860;2023-05-15T21:18:47;12.90;99.90
19734;DHT22;10018;51.230;7.860;2023-05-15T21:21:13;12.80;99.90
19734;DHT22;10018;51.230;7.860;2023-05-15T21:23:41;12.80;99.90
19734;DHT22;10018;51.230;7.860;2023-05-15T21:26:07;12.80;99.90
19734;DHT22;10018;51.230;7.860;2023-05-15T21:28:33;12.90;99.90
19734;DHT22;10018;51.230;7.860;2023-05-15T21:31:05;12.90;99.90
19734;DHT22;10018;51.230;7.860;2023-05-15T21:33:31;12.90;99.90
19734;DHT22;10018;51.230;7.860;2023-05-15T21:35:56;12.90;99.90
19734;DHT22;10018;51.230;7.860;2023-05-15T21:38:22;12.90;99.90
19734;DHT22;10018;51.230;7.860;2023-05-15T21:40:48;12.90;99.90
19734;DHT22;10018;51.230;7.860;2023-05-15T21:43:13;12.90;99.90
19734;DHT22;10018;51.230;7.860;2023-05-15T21:45:39;12.80;99.90
19734;DHT22;10018;51.230;7.860;2023-05-15T21:48:04;12.80;99.90
19734;DHT22;10018;51.230;7.860;2023-05-15T21:50:30;12.70;99.90
19734;DHT22;10018;51.230;7.860;2023-05-15T21:52:55;12.70;99.90
19734;DHT22;10018;51.230;7.860;2023-05-15T21:55:24;12.60;99.90
19734;DHT22;10018;51.230;7.860;2023-05-15T21:57:49;12.60;99.90
19734;DHT22;10018;51.230;7.860;2023-05-15T22:00:15;12.60;99.90
19734;DHT22;10018;51.230;7.860;2023-05-15T22:02:41;12.50;99.90
19734;DHT22;10018;51.230;7.860;2023-05-15T22:05:07;12.50;99.90
19734;DHT22;10018;51.230;7.860;2023-05-15T22:07:32;12.40;99.90
19734;DHT22;10018;51.230;7.860;2023-05-15T22:09:58;12.40;99.90
19734;DHT22;10018;51.230;7.860;2023-05-15T22:12:23;12.30;99.90
19734;DHT22;10018;51.230;7.860;2023-05-15T22:14:51;12.30;99.90
19734;DHT22;10018;51.230;7.860;2023-05-15T22:17:17;12.30;99.90
19734;DHT22;10018;51.230;7.860;2023-05-15T22:19:45;12.30;99.90
19734;DHT22;10018;51.230;7.860;2023-05-15T22:22:11;12.30;99.90
19734;DHT22;10018;51.230;7.860;2023-05-15T22:24:37;12.30;99.90
19734;DHT22;10018;51.230;7.860;2023-05-15T22:27:02;12.30;99.90
19734;DHT22;10018;51.230;7.860;2023-05-15T22:29:30;12.30;99.90
19734;DHT22;10018;51.230;7.860;2023-05-15T22:31:56;12.30;99.90
19734;DHT22;10018;51.230;7.860;2023-05-15T22:34:21;12.40;99.90
19734;DHT22;10018;51.230;7.860;2023-05-15T22:36:47;12.40;99.90
19734;DHT22;10018;51.230;7.860;2023-05-15T22:39:12;12.50;99.90
19734;DHT22;10018;51.230;7.860;2023-05-15T22:41:38;12.40;99.90
19734;DHT22;10018;51.230;7.860;2023-05-15T22:44:06;12.40;99.90
19734;DHT22;10018;51.230;7.860;2023-05-15T22:46:31;12.30;99.90
19734;DHT22;10018;51.230;7.860;2023-05-15T22:48:59;12.30;99.90
19734;DHT22;10018;51.230;7.860;2023-05-15T22:51:27;12.40;99.90
19734;DHT22;10018;51.230;7.860;2023-05-15T22:53:53;12.40;99.90
19734;DHT22;10018;51.230;7.860;2023-05-15T22:56:19;12.50;99.90
19734;DHT22;10018;51.230;7.860;2023-05-15T22:58:45;12.50;99.90
19734;DHT22;10018;51.230;7.860;2023-05-15T23:01:12;12.50;99.90
19734;DHT22;10018;51.230;7.860;2023-05-15T23:03:37;12.40;99.90
19734;DHT22;10018;51.230;7.860;2023-05-15T23:06:06;12.40;99.90
19734;DHT22;10018;51.230;7.860;2023-05-15T23:08:31;12.40;99.90
19734;DHT22;10018;51.230;7.860;2023-05-15T23:10:57;12.40;99.90
19734;DHT22;10018;51.230;7.860;2023-05-15T23:13:22;12.40;99.90
19734;DHT22;10018;51.230;7.860;2023-05-15T23:15:48;12.50;99.90
19734;DHT22;10018;51.230;7.860;2023-05-15T23:18:16;12.50;99.90
19734;DHT22;10018;51.230;7.860;2023-05-15T23:20:42;12.40;99.90
19734;DHT22;10018;51.230;7.860;2023-05-15T23:23:10;12.50;99.90
19734;DHT22;10018;51.230;7.860;2023-05-15T23:25:36;12.50;99.90
19734;DHT22;10018;51.230;7.860;2023-05-15T23:28:02;12.50;99.90
19734;DHT22;10018;51.230;7.860;2023-05-15T23:30:27;12.40;99.90
19734;DHT22;10018;51.230;7.860;2023-05-15T23:32:53;12.50;99.90
19734;DHT22;10018;51.230;7.860;2023-05-15T23:35:21;12.50;99.90
19734;DHT22;10018;51.230;7.860;2023-05-15T23:37:46;12.50;99.90
19734;DHT22;10018;51.230;7.860;2023-05-15T23:40:12;12.50;99.90
19734;DHT22;10018;51.230;7.860;2023-05-15T23:42:38;12.50;99.90
19734;DHT22;10018;51.230;7.860;2023-05-15T23:45:04;12.50;99.90
19734;DHT22;10018;51.230;7.860;2023-05-15T23:47:29;12.50;99.90
19734;DHT22;10018;51.230;7.860;2023-05-15T23:49:55;12.50;99.90
19734;DHT22;10018;51.230;7.860;2023-05-15T23:52:20;12.50;99.90
19734;DHT22;10018;51.230;7.860;2023-05-15T23:54:46;12.50;99.90
19734;DHT22;10018;51.230;7.860;2023-05-15T23:57:12;12.40;99.90
19734;DHT22;10018;51.230;7.860;2023-05-15T23:59:37;12.40;99.90
